createdAt,value
2023-11-18T00:02:35.989Z,0.40
2023-11-18T00:06:33.830Z,0.39
2023-11-18T00:10:31.854Z,0.38
2023-11-18T00:14:29.826Z,0.38
2023-11-18T00:18:27.785Z,0.37
2023-11-18T00:22:25.918Z,0.37
2023-11-18T00:26:23.741Z,0.37
2023-11-18T00:30:23.845Z,0.36
2023-11-18T00:34:21.787Z,0.36
2023-11-18T00:38:19.749Z,0.37
2023-11-18T00:42:17.785Z,0.37
2023-11-18T00:46:15.815Z,0.36
2023-11-18T00:50:15.779Z,0.36
2023-11-18T00:54:13.863Z,0.35
2023-11-18T00:58:12.693Z,0.34
2023-11-18T01:02:12.763Z,0.34
2023-11-18T01:06:10.741Z,0.34
2023-11-18T01:10:08.724Z,0.33
2023-11-18T01:14:06.741Z,0.33
2023-11-18T01:18:04.745Z,0.33
2023-11-18T01:22:02.734Z,0.32
2023-11-18T01:26:00.799Z,0.32
2023-11-18T01:29:58.663Z,0.32
2023-11-18T01:33:57.764Z,0.32
2023-11-18T01:37:55.814Z,0.31
2023-11-18T01:41:53.665Z,0.31
2023-11-18T01:45:51.804Z,0.30
2023-11-18T01:49:52.718Z,0.31
2023-11-18T01:53:52.684Z,0.30
2023-11-18T01:57:51.672Z,0.31
2023-11-18T02:01:50.696Z,0.30
2023-11-18T02:05:49.658Z,0.30
2023-11-18T02:09:48.624Z,0.30
2023-11-18T02:13:50.678Z,0.29
2023-11-18T02:17:49.775Z,0.29
2023-11-18T02:21:47.608Z,0.29
2023-11-18T02:25:48.624Z,0.28
2023-11-18T02:29:49.693Z,0.28
2023-11-18T02:33:55.685Z,0.28
2023-11-18T02:37:59.741Z,0.28
2023-11-18T02:41:57.573Z,0.29
2023-11-18T02:45:56.624Z,0.28
2023-11-18T02:49:56.624Z,0.28
2023-11-18T02:53:54.585Z,0.28
2023-11-18T02:57:54.591Z,0.27
2023-11-18T03:01:52.631Z,0.26
2023-11-18T03:05:50.574Z,0.25
2023-11-18T03:09:48.584Z,0.22
2023-11-18T03:13:46.530Z,0.22
2023-11-18T03:17:44.613Z,0.22
2023-11-18T03:21:42.523Z,0.21
2023-11-18T03:25:40.588Z,0.19
2023-11-18T03:29:38.551Z,0.19
2023-11-18T03:33:36.551Z,0.18
2023-11-18T03:37:35.553Z,0.17
2023-11-18T03:41:33.593Z,0.16
2023-11-18T03:45:31.519Z,0.16
2023-11-18T03:49:29.522Z,0.16
2023-11-18T03:53:27.477Z,0.16
2023-11-18T03:57:25.533Z,0.17
2023-11-18T04:01:23.544Z,0.18
2023-11-18T04:05:22.514Z,0.18
2023-11-18T04:09:20.476Z,0.16
2023-11-18T04:13:18.467Z,0.16
2023-11-18T04:17:16.593Z,0.15
2023-11-18T04:21:15.502Z,0.14
2023-11-18T04:25:14.435Z,0.14
2023-11-18T04:29:14.505Z,0.14
2023-11-18T04:33:12.413Z,0.14
2023-11-18T04:37:10.466Z,0.14
2023-11-18T04:41:08.496Z,0.13
2023-11-18T04:45:06.617Z,0.14
2023-11-18T04:49:04.499Z,0.15
2023-11-18T04:53:02.443Z,0.15
2023-11-18T04:57:00.394Z,0.14
2023-11-18T05:00:58.419Z,0.16
2023-11-18T05:04:56.435Z,0.17
2023-11-18T05:08:54.481Z,0.19
2023-11-18T05:13:01.422Z,0.18
2023-11-18T05:16:59.496Z,0.18
2023-11-18T05:20:57.410Z,0.19
2023-11-18T05:24:55.417Z,0.18
2023-11-18T05:28:53.461Z,0.17
2023-11-18T05:32:51.424Z,0.18
2023-11-18T05:36:49.341Z,0.18
2023-11-18T05:40:50.426Z,0.18
2023-11-18T05:44:49.329Z,0.18
2023-11-18T05:48:47.349Z,0.17
2023-11-18T05:52:45.419Z,0.16
2023-11-18T05:56:43.351Z,0.16
2023-11-18T06:00:42.062Z,0.17
2023-11-18T06:04:40.346Z,0.17
2023-11-18T06:08:40.314Z,0.17
2023-11-18T06:12:39.347Z,0.17
2023-11-18T06:16:40.698Z,0.18
2023-11-18T06:20:40.389Z,0.20
2023-11-18T06:24:38.300Z,0.21
2023-11-18T06:28:36.303Z,0.22
2023-11-18T06:32:34.306Z,0.23
2023-11-18T06:36:34.308Z,0.25
2023-11-18T06:40:34.313Z,0.25
2023-11-18T06:44:32.318Z,0.26
2023-11-18T06:48:30.297Z,0.28
2023-11-18T06:52:29.274Z,0.30
2023-11-18T06:56:27.250Z,0.31
2023-11-18T07:00:25.246Z,0.32
2023-11-18T07:04:23.256Z,0.32
2023-11-18T07:08:21.305Z,0.33
2023-11-18T07:12:19.246Z,0.36
2023-11-18T07:16:17.301Z,0.38
2023-11-18T07:20:15.229Z,0.39
2023-11-18T07:24:13.494Z,0.41
2023-11-18T07:28:13.233Z,0.42
2023-11-18T07:32:13.323Z,0.43
2023-11-18T07:36:13.264Z,0.46
2023-11-18T07:40:12.221Z,0.51
2023-11-18T07:44:10.312Z,0.57
2023-11-18T07:48:08.349Z,0.60
2023-11-18T07:52:06.214Z,0.63
2023-11-18T07:56:04.265Z,0.65
2023-11-18T08:00:02.188Z,0.68
2023-11-18T08:04:04.260Z,0.71
2023-11-18T08:08:02.143Z,0.73
2023-11-18T08:12:03.163Z,0.76
2023-11-18T08:16:01.261Z,0.76
2023-11-18T08:19:59.171Z,0.73
2023-11-18T08:23:57.106Z,0.75
2023-11-18T08:27:56.186Z,0.77
2023-11-18T08:31:55.194Z,0.80
2023-11-18T08:35:54.129Z,0.85
2023-11-18T08:39:52.152Z,0.90
2023-11-18T08:43:50.197Z,0.97
2023-11-18T08:47:48.117Z,1.01
2023-11-18T08:51:46.131Z,1.09
2023-11-18T08:55:48.082Z,1.12
2023-11-18T08:59:46.167Z,1.12
2023-11-18T09:03:44.256Z,1.15
2023-11-18T09:07:42.168Z,1.15
2023-11-18T09:11:41.070Z,1.17
2023-11-18T09:15:39.091Z,1.23
2023-11-18T09:19:38.116Z,1.34
2023-11-18T09:23:39.150Z,1.42
2023-11-18T09:27:37.064Z,1.45
2023-11-18T09:31:35.191Z,1.46
2023-11-18T09:35:33.047Z,1.45
2023-11-18T09:39:45.055Z,1.48
2023-11-18T09:43:50.165Z,1.52
2023-11-18T09:47:55.097Z,1.47
2023-11-18T09:51:55.055Z,1.35
2023-11-18T09:56:08.067Z,1.31
2023-11-18T10:00:28.260Z,1.37
2023-11-18T10:04:28.091Z,1.44
2023-11-18T10:08:26.080Z,1.50
2023-11-18T10:12:32.044Z,1.59
2023-11-18T10:16:34.989Z,1.71
2023-11-18T10:20:36.083Z,1.74
2023-11-18T10:24:33.953Z,1.69
2023-11-18T10:28:40.018Z,1.67
2023-11-18T10:32:38.071Z,1.64
2023-11-18T10:36:41.038Z,1.62
2023-11-18T10:40:38.953Z,1.59
2023-11-18T10:44:37.041Z,1.61
2023-11-18T10:48:34.945Z,1.65
2023-11-18T10:52:33.966Z,1.68
2023-11-18T10:56:38.929Z,1.73
2023-11-18T11:00:40.975Z,1.72
2023-11-18T11:04:38.928Z,1.69
2023-11-18T11:12:37.913Z,1.66
2023-11-18T11:16:40.937Z,1.64
2023-11-18T11:20:40.924Z,1.63
2023-11-18T11:24:57.000Z,1.64
2023-11-18T11:29:21.272Z,1.68
2023-11-18T11:33:30.892Z,1.65
2023-11-18T11:37:31.030Z,1.63
2023-11-18T11:41:33.970Z,1.55
2023-11-18T11:45:35.899Z,1.48
2023-11-18T11:49:37.858Z,1.45
2023-11-18T11:53:40.971Z,1.43
2023-11-18T11:57:40.875Z,1.46
2023-11-18T12:01:42.866Z,1.49
2023-11-18T12:05:41.906Z,1.57
2023-11-18T12:09:46.897Z,1.65
2023-11-18T12:13:46.915Z,1.67
2023-11-18T12:17:45.872Z,1.64
2023-11-18T12:22:09.830Z,1.63
2023-11-18T12:26:10.867Z,1.59
2023-11-18T12:30:08.827Z,1.58
2023-11-18T12:34:07.791Z,1.61
2023-11-18T12:38:42.829Z,1.59
2023-11-18T12:43:14.984Z,1.60
2023-11-18T12:47:25.893Z,1.56
2023-11-18T12:51:27.814Z,1.51
2023-11-18T12:55:28.800Z,1.46
2023-11-18T12:59:26.831Z,1.43
2023-11-18T13:03:25.901Z,1.39
2023-11-18T13:07:24.757Z,1.36
2023-11-18T13:11:23.836Z,1.32
2023-11-18T13:15:23.803Z,1.31
2023-11-18T13:19:21.765Z,1.29
2023-11-18T13:23:19.798Z,1.25
2023-11-18T13:27:17.878Z,1.21
2023-11-18T13:31:17.823Z,1.19
2023-11-18T13:35:17.839Z,1.21
2023-11-18T13:39:16.741Z,1.20
2023-11-18T13:43:18.742Z,1.20
2023-11-18T13:47:19.786Z,1.19
2023-11-18T13:51:20.742Z,1.16
2023-11-18T13:55:22.718Z,1.14
2023-11-18T13:59:20.793Z,1.10
2023-11-18T14:03:19.840Z,1.05
2023-11-18T14:07:19.689Z,1.03
2023-11-18T14:11:18.231Z,1.02
2023-11-18T14:15:17.712Z,1.00
2023-11-18T14:19:15.714Z,0.99
2023-11-18T14:23:13.719Z,0.97
2023-11-18T14:27:12.678Z,0.96
2023-11-18T14:31:11.784Z,0.94
2023-11-18T14:35:09.704Z,0.93
2023-11-18T14:39:07.736Z,0.92
2023-11-18T14:43:05.682Z,0.89
2023-11-18T14:47:03.792Z,0.87
2023-11-18T14:51:02.715Z,0.88
2023-11-18T14:55:00.628Z,0.86
2023-11-18T14:58:58.678Z,0.85
2023-11-18T15:02:59.374Z,0.84
2023-11-18T15:07:00.616Z,0.81
2023-11-18T15:10:58.620Z,0.80
2023-11-18T15:14:56.623Z,0.79
2023-11-18T15:18:55.657Z,0.80
2023-11-18T15:22:53.683Z,0.80
2023-11-18T15:26:52.377Z,0.80
2023-11-18T15:30:51.751Z,0.80
2023-11-18T15:34:49.649Z,0.81
2023-11-18T15:38:47.710Z,0.80
2023-11-18T15:42:45.579Z,0.78
2023-11-18T15:46:45.599Z,0.80
2023-11-18T15:50:45.570Z,0.81
2023-11-18T15:54:44.560Z,0.79
2023-11-18T15:58:43.582Z,0.78
2023-11-18T16:02:41.566Z,0.78
2023-11-18T16:06:39.571Z,0.79
2023-11-18T16:10:39.652Z,0.81
2023-11-18T16:14:37.695Z,0.80
2023-11-18T16:18:35.548Z,0.82
2023-11-18T16:22:33.516Z,0.82
2023-11-18T16:26:31.570Z,0.84
2023-11-18T16:30:32.593Z,0.85
2023-11-18T16:34:30.510Z,0.85
2023-11-18T16:38:28.626Z,0.85
2023-11-18T16:42:27.461Z,0.84
2023-11-18T16:46:26.567Z,0.84
2023-11-18T16:50:27.750Z,0.83
2023-11-18T16:54:36.044Z,0.83
2023-11-18T16:58:38.500Z,0.83
2023-11-18T17:02:36.607Z,0.84
2023-11-18T17:06:34.447Z,0.84
2023-11-18T17:10:32.489Z,0.85
2023-11-18T17:14:30.475Z,0.85
2023-11-18T17:18:28.543Z,0.85
2023-11-18T17:22:26.469Z,0.85
2023-11-18T17:26:24.463Z,0.86
2023-11-18T17:30:23.563Z,0.89
2023-11-18T17:34:21.444Z,0.91
2023-11-18T17:38:19.444Z,0.91
2023-11-18T17:42:17.471Z,0.92
2023-11-18T17:46:18.433Z,0.95
2023-11-18T17:50:20.461Z,0.96
2023-11-18T17:54:18.420Z,0.97
2023-11-18T17:58:18.390Z,0.99
2023-11-18T18:02:19.408Z,1.03
2023-11-18T18:06:17.377Z,1.05
2023-11-18T18:10:16.347Z,1.07
2023-11-18T18:14:15.379Z,1.10
2023-11-18T18:18:13.397Z,1.13
2023-11-18T18:22:11.366Z,1.15
2023-11-18T18:26:09.335Z,1.15
2023-11-18T18:30:07.377Z,1.15
2023-11-18T18:34:05.340Z,1.16
2023-11-18T18:38:03.396Z,1.17
2023-11-18T18:42:01.328Z,1.16
2023-11-18T18:45:59.465Z,1.17
2023-11-18T18:49:57.340Z,1.17
2023-11-18T18:53:55.365Z,1.19
2023-11-18T18:57:53.344Z,1.19
2023-11-18T19:01:52.358Z,1.19
2023-11-18T19:05:50.271Z,1.17
2023-11-18T19:09:49.327Z,1.16
2023-11-18T19:13:47.278Z,1.15
2023-11-18T19:17:45.435Z,1.13
2023-11-18T19:21:43.250Z,1.11
2023-11-18T19:25:41.294Z,1.10
2023-11-18T19:29:41.404Z,1.09
2023-11-18T19:33:40.269Z,1.10
2023-11-18T19:37:38.249Z,1.10
2023-11-18T19:41:36.331Z,1.09
2023-11-18T19:45:34.352Z,1.07
2023-11-18T19:49:33.298Z,1.06
2023-11-18T19:53:31.265Z,1.05
2023-11-18T19:57:29.249Z,1.06
2023-11-18T20:01:30.250Z,1.05
2023-11-18T20:05:28.259Z,1.05
2023-11-18T20:09:26.186Z,1.06
2023-11-18T20:13:24.242Z,1.08
2023-11-18T20:17:22.227Z,1.09
2023-11-18T20:21:20.253Z,1.10
2023-11-18T20:25:18.219Z,1.11
2023-11-18T20:29:16.248Z,1.14
2023-11-18T20:33:14.264Z,1.16
2023-11-18T20:37:13.205Z,1.16
2023-11-18T20:41:11.231Z,1.18
2023-11-18T20:45:09.210Z,1.21
2023-11-18T20:49:07.139Z,1.21
2023-11-18T20:53:05.658Z,1.20
2023-11-18T20:57:03.170Z,1.20
2023-11-18T21:01:07.811Z,1.20
2023-11-18T21:05:06.915Z,1.21
2023-11-18T21:09:05.119Z,1.22
2023-11-18T21:13:03.130Z,1.21
2023-11-18T21:17:08.469Z,1.22
2023-11-18T21:21:07.134Z,1.23
2023-11-18T21:25:05.115Z,1.25
2023-11-18T21:29:03.128Z,1.26
2023-11-18T21:33:03.235Z,1.26
2023-11-18T21:37:01.090Z,1.25
2023-11-18T21:40:59.125Z,1.25
2023-11-18T21:44:57.108Z,1.25
2023-11-18T21:48:55.134Z,1.25
2023-11-18T21:52:53.106Z,1.27
2023-11-18T21:56:51.182Z,1.30
2023-11-18T22:00:49.065Z,1.33
2023-11-18T22:04:47.091Z,1.35
2023-11-18T22:08:45.129Z,1.38
2023-11-18T22:12:43.052Z,1.39
2023-11-18T22:16:41.125Z,1.38
2023-11-18T22:20:39.150Z,1.38
2023-11-18T22:24:37.170Z,1.38
2023-11-18T22:28:39.058Z,1.40
2023-11-18T22:32:37.063Z,1.45
2023-11-18T22:36:35.093Z,1.44
2023-11-18T22:40:34.001Z,1.42
2023-11-18T22:44:35.435Z,1.40
2023-11-18T22:48:34.013Z,1.39
2023-11-18T22:52:33.012Z,1.39
2023-11-18T22:56:31.048Z,1.42
2023-11-18T23:00:45.084Z,1.49
2023-11-18T23:04:42.986Z,1.53
2023-11-18T23:08:50.995Z,1.57
2023-11-18T23:12:48.940Z,1.62
2023-11-18T23:16:47.011Z,1.67
2023-11-18T23:20:45.950Z,1.71
2023-11-18T23:24:44.971Z,1.75
2023-11-18T23:28:42.954Z,1.78
2023-11-18T23:32:41.008Z,1.82
2023-11-18T23:36:39.004Z,1.86
2023-11-18T23:40:37.003Z,1.89
2023-11-18T23:44:35.964Z,1.89
2023-11-18T23:48:33.955Z,1.91
2023-11-18T23:52:31.900Z,1.93
2023-11-18T23:56:29.940Z,1.94
